sensor_id;sensor_type;location;lat;lon;timestamp;P1;durP1;ratioP1;P2;durP2;ratioP2
23594;SDS011;11975;47.674;9.472;2023-06-26T00:00:41;23.10;;;21.80;;
23594;SDS011;11975;47.674;9.472;2023-06-26T00:03:07;22.70;;;21.40;;
23594;SDS011;11975;47.674;9.472;2023-06-26T00:05:33;23.92;;;22.52;;
23594;SDS011;11975;47.674;9.472;2023-06-26T00:08:00;22.95;;;21.55;;
23594;SDS011;11975;47.674;9.472;2023-06-26T00:10:26;20.92;;;19.73;;
23594;SDS011;11975;47.674;9.472;2023-06-26T00:12:53;22.20;;;20.95;;
23594;SDS011;11975;47.674;9.472;2023-06-26T00:15:19;22.30;;;21.00;;
23594;SDS011;11975;47.674;9.472;2023-06-26T00:17:45;23.08;;;21.75;;
23594;SDS011;11975;47.674;9.472;2023-06-26T00:20:11;22.15;;;20.90;;
23594;SDS011;11975;47.674;9.472;2023-06-26T00:22:37;22.95;;;21.65;;
23594;SDS011;11975;47.674;9.472;2023-06-26T00:25:06;22.13;;;20.88;;
23594;SDS011;11975;47.674;9.472;2023-06-26T00:27:32;22.90;;;21.60;;
23594;SDS011;11975;47.674;9.472;2023-06-26T00:29:58;22.67;;;21.38;;
23594;SDS011;11975;47.674;9.472;2023-06-26T00:32:24;21.58;;;20.38;;
23594;SDS011;11975;47.674;9.472;2023-06-26T00:34:50;21.83;;;20.55;;
23594;SDS011;11975;47.674;9.472;2023-06-26T00:37:17;21.45;;;20.25;;
23594;SDS011;11975;47.674;9.472;2023-06-26T00:39:43;22.50;;;21.23;;
23594;SDS011;11975;47.674;9.472;2023-06-26T00:42:09;22.88;;;21.58;;
23594;SDS011;11975;47.674;9.472;2023-06-26T00:44:35;23.02;;;21.67;;
23594;SDS011;11975;47.674;9.472;2023-06-26T00:47:01;23.13;;;21.83;;
23594;SDS011;11975;47.674;9.472;2023-06-26T00:49:27;22.88;;;21.58;;
23594;SDS011;11975;47.674;9.472;2023-06-26T00:51:53;23.95;;;22.58;;
23594;SDS011;11975;47.674;9.472;2023-06-26T00:54:20;23.33;;;22.00;;
23594;SDS011;11975;47.674;9.472;2023-06-26T00:56:47;24.90;;;23.48;;
23594;SDS011;11975;47.674;9.472;2023-06-26T00:59:13;24.13;;;22.73;;
23594;SDS011;11975;47.674;9.472;2023-06-26T01:01:39;25.15;;;23.52;;
23594;SDS011;11975;47.674;9.472;2023-06-26T01:04:05;25.40;;;23.90;;
23594;SDS011;11975;47.674;9.472;2023-06-26T01:06:32;25.88;;;24.38;;
23594;SDS011;11975;47.674;9.472;2023-06-26T01:09:01;25.80;;;24.33;;
23594;SDS011;11975;47.674;9.472;2023-06-26T01:13:54;24.33;;;22.93;;
23594;SDS011;11975;47.674;9.472;2023-06-26T01:16:22;26.05;;;24.58;;
23594;SDS011;11975;47.674;9.472;2023-06-26T01:18:49;27.83;;;26.25;;
23594;SDS011;11975;47.674;9.472;2023-06-26T01:21:15;26.50;;;24.42;;
23594;SDS011;11975;47.674;9.472;2023-06-26T01:23:47;25.23;;;23.75;;
23594;SDS011;11975;47.674;9.472;2023-06-26T01:26:22;25.45;;;24.00;;
23594;SDS011;11975;47.674;9.472;2023-06-26T01:28:49;27.25;;;25.73;;
23594;SDS011;11975;47.674;9.472;2023-06-26T01:31:16;28.95;;;27.27;;
23594;SDS011;11975;47.674;9.472;2023-06-26T01:33:42;28.10;;;26.50;;
23594;SDS011;11975;47.674;9.472;2023-06-26T01:36:09;28.23;;;26.63;;
23594;SDS011;11975;47.674;9.472;2023-06-26T01:38:35;26.60;;;25.10;;
23594;SDS011;11975;47.674;9.472;2023-06-26T01:41:02;28.57;;;26.97;;
23594;SDS011;11975;47.674;9.472;2023-06-26T01:43:38;30.70;;;28.55;;
23594;SDS011;11975;47.674;9.472;2023-06-26T01:46:24;29.58;;;27.88;;
23594;SDS011;11975;47.674;9.472;2023-06-26T01:51:24;30.20;;;28.50;;
23594;SDS011;11975;47.674;9.472;2023-06-26T01:53:54;28.27;;;26.67;;
23594;SDS011;11975;47.674;9.472;2023-06-26T01:56:21;28.35;;;26.75;;
23594;SDS011;11975;47.674;9.472;2023-06-26T01:58:49;26.65;;;25.15;;
23594;SDS011;11975;47.674;9.472;2023-06-26T02:01:15;28.48;;;26.88;;
23594;SDS011;11975;47.674;9.472;2023-06-26T02:03:42;26.97;;;25.47;;
23594;SDS011;11975;47.674;9.472;2023-06-26T02:06:07;26.17;;;24.67;;
23594;SDS011;11975;47.674;9.472;2023-06-26T02:08:33;26.73;;;25.23;;
23594;SDS011;11975;47.674;9.472;2023-06-26T02:10:59;27.05;;;25.48;;
23594;SDS011;11975;47.674;9.472;2023-06-26T02:13:25;25.67;;;23.98;;
23594;SDS011;11975;47.674;9.472;2023-06-26T02:15:51;27.75;;;26.05;;
23594;SDS011;11975;47.674;9.472;2023-06-26T02:18:17;28.25;;;26.55;;
23594;SDS011;11975;47.674;9.472;2023-06-26T02:20:43;25.90;;;24.40;;
23594;SDS011;11975;47.674;9.472;2023-06-26T02:23:09;26.10;;;24.63;;
23594;SDS011;11975;47.674;9.472;2023-06-26T02:25:35;27.50;;;25.92;;
23594;SDS011;11975;47.674;9.472;2023-06-26T02:28:01;27.17;;;25.63;;
23594;SDS011;11975;47.674;9.472;2023-06-26T02:30:27;28.77;;;27.08;;
23594;SDS011;11975;47.674;9.472;2023-06-26T02:32:53;28.42;;;26.63;;
23594;SDS011;11975;47.674;9.472;2023-06-26T02:35:19;30.17;;;28.08;;
23594;SDS011;11975;47.674;9.472;2023-06-26T02:37:45;28.67;;;26.98;;
23594;SDS011;11975;47.674;9.472;2023-06-26T02:40:11;28.77;;;27.13;;
23594;SDS011;11975;47.674;9.472;2023-06-26T02:42:37;29.63;;;27.88;;
23594;SDS011;11975;47.674;9.472;2023-06-26T02:45:03;29.80;;;28.08;;
23594;SDS011;11975;47.674;9.472;2023-06-26T02:47:29;29.20;;;27.50;;
23594;SDS011;11975;47.674;9.472;2023-06-26T02:49:55;30.73;;;28.92;;
23594;SDS011;11975;47.674;9.472;2023-06-26T02:52:21;28.77;;;27.08;;
23594;SDS011;11975;47.674;9.472;2023-06-26T02:54:47;30.00;;;28.30;;
23594;SDS011;11975;47.674;9.472;2023-06-26T02:57:13;29.50;;;27.80;;
23594;SDS011;11975;47.674;9.472;2023-06-26T02:59:40;30.10;;;28.40;;
23594;SDS011;11975;47.674;9.472;2023-06-26T03:02:06;29.55;;;27.85;;
23594;SDS011;11975;47.674;9.472;2023-06-26T03:04:32;29.85;;;28.05;;
23594;SDS011;11975;47.674;9.472;2023-06-26T03:07:02;27.90;;;26.30;;
23594;SDS011;11975;47.674;9.472;2023-06-26T03:09:28;29.38;;;27.45;;
23594;SDS011;11975;47.674;9.472;2023-06-26T03:11:54;29.58;;;27.88;;
23594;SDS011;11975;47.674;9.472;2023-06-26T03:14:21;29.25;;;27.55;;
23594;SDS011;11975;47.674;9.472;2023-06-26T03:16:47;30.20;;;28.50;;
23594;SDS011;11975;47.674;9.472;2023-06-26T03:19:13;28.58;;;26.98;;
23594;SDS011;11975;47.674;9.472;2023-06-26T03:21:39;28.70;;;27.02;;
23594;SDS011;11975;47.674;9.472;2023-06-26T03:24:05;28.10;;;26.40;;
23594;SDS011;11975;47.674;9.472;2023-06-26T03:26:31;27.73;;;26.13;;
23594;SDS011;11975;47.674;9.472;2023-06-26T03:28:58;28.65;;;27.00;;
23594;SDS011;11975;47.674;9.472;2023-06-26T03:31:24;26.75;;;25.23;;
23594;SDS011;11975;47.674;9.472;2023-06-26T03:33:50;26.60;;;25.10;;
23594;SDS011;11975;47.674;9.472;2023-06-26T03:36:15;27.65;;;26.05;;
23594;SDS011;11975;47.674;9.472;2023-06-26T03:38:41;28.60;;;26.92;;
23594;SDS011;11975;47.674;9.472;2023-06-26T03:41:07;27.67;;;26.08;;
23594;SDS011;11975;47.674;9.472;2023-06-26T03:43:33;28.52;;;26.92;;
23594;SDS011;11975;47.674;9.472;2023-06-26T03:45:59;29.58;;;27.77;;
23594;SDS011;11975;47.674;9.472;2023-06-26T03:48:25;27.23;;;25.63;;
23594;SDS011;11975;47.674;9.472;2023-06-26T03:50:51;27.33;;;25.77;;
23594;SDS011;11975;47.674;9.472;2023-06-26T03:53:17;28.13;;;26.52;;
23594;SDS011;11975;47.674;9.472;2023-06-26T03:55:43;27.67;;;26.08;;
23594;SDS011;11975;47.674;9.472;2023-06-26T03:58:09;27.90;;;26.02;;
23594;SDS011;11975;47.674;9.472;2023-06-26T04:00:35;27.60;;;26.00;;
23594;SDS011;11975;47.674;9.472;2023-06-26T04:03:01;27.67;;;26.08;;
23594;SDS011;11975;47.674;9.472;2023-06-26T04:05:28;28.60;;;26.90;;
23594;SDS011;11975;47.674;9.472;2023-06-26T04:07:54;29.90;;;28.10;;
23594;SDS011;11975;47.674;9.472;2023-06-26T04:10:20;31.85;;;30.00;;
23594;SDS011;11975;47.674;9.472;2023-06-26T04:12:47;32.27;;;30.43;;
23594;SDS011;11975;47.674;9.472;2023-06-26T04:15:13;34.50;;;32.45;;
23594;SDS011;11975;47.674;9.472;2023-06-26T04:17:39;35.28;;;33.25;;
23594;SDS011;11975;47.674;9.472;2023-06-26T04:20:05;35.40;;;33.33;;
23594;SDS011;11975;47.674;9.472;2023-06-26T04:22:32;33.85;;;31.85;;
23594;SDS011;11975;47.674;9.472;2023-06-26T04:25:00;32.53;;;30.65;;
23594;SDS011;11975;47.674;9.472;2023-06-26T04:27:28;29.85;;;28.13;;
23594;SDS011;11975;47.674;9.472;2023-06-26T04:29:54;29.20;;;27.52;;
23594;SDS011;11975;47.674;9.472;2023-06-26T04:32:20;29.27;;;27.60;;
23594;SDS011;11975;47.674;9.472;2023-06-26T04:34:46;26.30;;;24.77;;
23594;SDS011;11975;47.674;9.472;2023-06-26T04:37:13;26.95;;;25.33;;
23594;SDS011;11975;47.674;9.472;2023-06-26T04:39:42;25.13;;;23.70;;
23594;SDS011;11975;47.674;9.472;2023-06-26T04:42:08;25.38;;;23.90;;
23594;SDS011;11975;47.674;9.472;2023-06-26T04:47:03;23.58;;;22.10;;
23594;SDS011;11975;47.674;9.472;2023-06-26T04:49:29;23.40;;;22.10;;
23594;SDS011;11975;47.674;9.472;2023-06-26T04:51:55;24.05;;;22.60;;
23594;SDS011;11975;47.674;9.472;2023-06-26T04:54:22;23.58;;;22.23;;
23594;SDS011;11975;47.674;9.472;2023-06-26T04:56:48;23.65;;;22.25;;
23594;SDS011;11975;47.674;9.472;2023-06-26T04:59:14;23.30;;;21.90;;
23594;SDS011;11975;47.674;9.472;2023-06-26T05:01:40;23.75;;;22.35;;
23594;SDS011;11975;47.674;9.472;2023-06-26T05:04:07;22.45;;;21.15;;
23594;SDS011;11975;47.674;9.472;2023-06-26T05:06:33;22.33;;;21.03;;
23594;SDS011;11975;47.674;9.472;2023-06-26T05:08:58;22.30;;;20.92;;
23594;SDS011;11975;47.674;9.472;2023-06-26T05:11:25;22.42;;;21.13;;
23594;SDS011;11975;47.674;9.472;2023-06-26T05:13:51;23.02;;;21.73;;
23594;SDS011;11975;47.674;9.472;2023-06-26T05:16:17;23.17;;;21.77;;
23594;SDS011;11975;47.674;9.472;2023-06-26T05:18:43;23.13;;;21.73;;
23594;SDS011;11975;47.674;9.472;2023-06-26T05:21:09;22.60;;;21.10;;
23594;SDS011;11975;47.674;9.472;2023-06-26T05:23:35;22.20;;;20.95;;
23594;SDS011;11975;47.674;9.472;2023-06-26T05:26:01;21.42;;;20.23;;
23594;SDS011;11975;47.674;9.472;2023-06-26T05:28:28;21.38;;;20.08;;
23594;SDS011;11975;47.674;9.472;2023-06-26T05:30:57;20.02;;;18.85;;
23594;SDS011;11975;47.674;9.472;2023-06-26T05:35:51;20.80;;;19.60;;
23594;SDS011;11975;47.674;9.472;2023-06-26T05:38:17;20.05;;;18.95;;
23594;SDS011;11975;47.674;9.472;2023-06-26T05:40:44;18.75;;;17.65;;
23594;SDS011;11975;47.674;9.472;2023-06-26T05:43:10;19.60;;;18.50;;
23594;SDS011;11975;47.674;9.472;2023-06-26T05:45:36;19.08;;;17.98;;
23594;SDS011;11975;47.674;9.472;2023-06-26T05:48:02;19.37;;;18.27;;
23594;SDS011;11975;47.674;9.472;2023-06-26T05:50:28;19.00;;;17.90;;
23594;SDS011;11975;47.674;9.472;2023-06-26T05:52:55;19.95;;;18.33;;
23594;SDS011;11975;47.674;9.472;2023-06-26T05:55:21;18.77;;;17.67;;
23594;SDS011;11975;47.674;9.472;2023-06-26T05:57:47;19.45;;;18.35;;
23594;SDS011;11975;47.674;9.472;2023-06-26T06:00:13;18.63;;;17.55;;
23594;SDS011;11975;47.674;9.472;2023-06-26T06:02:40;19.65;;;18.55;;
23594;SDS011;11975;47.674;9.472;2023-06-26T06:07:33;20.75;;;19.55;;
23594;SDS011;11975;47.674;9.472;2023-06-26T06:10:00;20.30;;;19.05;;
23594;SDS011;11975;47.674;9.472;2023-06-26T06:12:26;20.73;;;19.52;;
23594;SDS011;11975;47.674;9.472;2023-06-26T06:14:52;21.27;;;19.98;;
23594;SDS011;11975;47.674;9.472;2023-06-26T06:17:19;21.20;;;19.92;;
23594;SDS011;11975;47.674;9.472;2023-06-26T06:22:11;21.30;;;19.90;;
23594;SDS011;11975;47.674;9.472;2023-06-26T06:24:37;20.00;;;18.90;;
23594;SDS011;11975;47.674;9.472;2023-06-26T06:27:03;20.87;;;19.57;;
23594;SDS011;11975;47.674;9.472;2023-06-26T06:29:29;20.27;;;19.07;;
23594;SDS011;11975;47.674;9.472;2023-06-26T06:31:55;20.03;;;18.83;;
23594;SDS011;11975;47.674;9.472;2023-06-26T06:34:21;19.90;;;18.70;;
23594;SDS011;11975;47.674;9.472;2023-06-26T06:36:47;20.43;;;19.23;;
23594;SDS011;11975;47.674;9.472;2023-06-26T06:39:13;19.57;;;18.47;;
23594;SDS011;11975;47.674;9.472;2023-06-26T06:41:39;19.73;;;18.52;;
23594;SDS011;11975;47.674;9.472;2023-06-26T06:44:05;19.73;;;18.53;;
23594;SDS011;11975;47.674;9.472;2023-06-26T06:46:31;19.67;;;18.57;;
23594;SDS011;11975;47.674;9.472;2023-06-26T06:48:57;18.80;;;17.80;;
23594;SDS011;11975;47.674;9.472;2023-06-26T06:51:23;20.03;;;18.90;;
23594;SDS011;11975;47.674;9.472;2023-06-26T06:53:49;20.43;;;19.23;;
23594;SDS011;11975;47.674;9.472;2023-06-26T06:56:15;19.70;;;18.60;;
23594;SDS011;11975;47.674;9.472;2023-06-26T06:58:41;19.70;;;18.60;;
23594;SDS011;11975;47.674;9.472;2023-06-26T07:01:09;18.90;;;17.83;;
23594;SDS011;11975;47.674;9.472;2023-06-26T07:03:35;19.05;;;17.95;;
23594;SDS011;11975;47.674;9.472;2023-06-26T07:06:01;19.03;;;17.97;;
23594;SDS011;11975;47.674;9.472;2023-06-26T07:08:28;20.40;;;19.27;;
23594;SDS011;11975;47.674;9.472;2023-06-26T07:10:54;18.95;;;17.85;;
23594;SDS011;11975;47.674;9.472;2023-06-26T07:13:22;18.92;;;17.83;;
23594;SDS011;11975;47.674;9.472;2023-06-26T07:15:48;19.10;;;18.00;;
23594;SDS011;11975;47.674;9.472;2023-06-26T07:18:14;18.67;;;17.58;;
23594;SDS011;11975;47.674;9.472;2023-06-26T07:20:40;19.55;;;18.35;;
23594;SDS011;11975;47.674;9.472;2023-06-26T07:23:07;17.55;;;16.55;;
23594;SDS011;11975;47.674;9.472;2023-06-26T07:25:33;18.05;;;16.98;;
23594;SDS011;11975;47.674;9.472;2023-06-26T07:27:59;19.27;;;18.15;;
23594;SDS011;11975;47.674;9.472;2023-06-26T07:30:25;19.10;;;17.90;;
23594;SDS011;11975;47.674;9.472;2023-06-26T07:32:51;17.60;;;16.60;;
23594;SDS011;11975;47.674;9.472;2023-06-26T07:35:17;17.90;;;16.90;;
23594;SDS011;11975;47.674;9.472;2023-06-26T07:37:43;17.38;;;16.38;;
23594;SDS011;11975;47.674;9.472;2023-06-26T07:40:09;17.27;;;16.27;;
23594;SDS011;11975;47.674;9.472;2023-06-26T07:42:35;16.35;;;15.45;;
23594;SDS011;11975;47.674;9.472;2023-06-26T07:45:02;17.27;;;16.27;;
23594;SDS011;11975;47.674;9.472;2023-06-26T07:47:35;16.85;;;15.85;;
23594;SDS011;11975;47.674;9.472;2023-06-26T07:50:02;17.38;;;16.38;;
23594;SDS011;11975;47.674;9.472;2023-06-26T07:52:28;17.33;;;16.33;;
23594;SDS011;11975;47.674;9.472;2023-06-26T07:54:56;17.27;;;16.33;;
23594;SDS011;11975;47.674;9.472;2023-06-26T07:57:22;17.73;;;16.17;;
23594;SDS011;11975;47.674;9.472;2023-06-26T07:59:48;16.92;;;16.02;;
23594;SDS011;11975;47.674;9.472;2023-06-26T08:02:14;16.25;;;15.35;;
23594;SDS011;11975;47.674;9.472;2023-06-26T08:04:40;16.83;;;15.93;;
23594;SDS011;11975;47.674;9.472;2023-06-26T08:07:06;15.70;;;14.82;;
23594;SDS011;11975;47.674;9.472;2023-06-26T08:09:32;16.30;;;15.40;;
23594;SDS011;11975;47.674;9.472;2023-06-26T08:11:59;15.73;;;14.82;;
23594;SDS011;11975;47.674;9.472;2023-06-26T08:19:17;16.98;;;15.98;;
23594;SDS011;11975;47.674;9.472;2023-06-26T08:21:43;16.95;;;16.05;;
23594;SDS011;11975;47.674;9.472;2023-06-26T08:24:10;16.88;;;15.95;;
23594;SDS011;11975;47.674;9.472;2023-06-26T08:26:36;17.52;;;16.52;;
23594;SDS011;11975;47.674;9.472;2023-06-26T08:29:02;16.65;;;15.75;;
23594;SDS011;11975;47.674;9.472;2023-06-26T08:31:36;17.10;;;16.10;;
23594;SDS011;11975;47.674;9.472;2023-06-26T08:34:03;16.08;;;15.18;;
23594;SDS011;11975;47.674;9.472;2023-06-26T08:36:29;16.38;;;15.48;;
23594;SDS011;11975;47.674;9.472;2023-06-26T08:38:55;17.67;;;16.67;;
23594;SDS011;11975;47.674;9.472;2023-06-26T08:41:21;13.77;;;12.98;;
23594;SDS011;11975;47.674;9.472;2023-06-26T08:43:47;17.02;;;16.08;;
23594;SDS011;11975;47.674;9.472;2023-06-26T08:46:14;16.75;;;15.85;;
23594;SDS011;11975;47.674;9.472;2023-06-26T08:48:41;18.23;;;17.13;;
23594;SDS011;11975;47.674;9.472;2023-06-26T08:51:09;15.82;;;14.93;;
23594;SDS011;11975;47.674;9.472;2023-06-26T08:53:52;15.63;;;14.73;;
23594;SDS011;11975;47.674;9.472;2023-06-26T08:56:22;16.08;;;15.18;;
23594;SDS011;11975;47.674;9.472;2023-06-26T08:58:50;18.00;;;17.00;;
23594;SDS011;11975;47.674;9.472;2023-06-26T09:01:16;16.67;;;15.68;;
23594;SDS011;11975;47.674;9.472;2023-06-26T09:03:42;16.80;;;15.90;;
23594;SDS011;11975;47.674;9.472;2023-06-26T09:06:08;17.27;;;16.27;;
23594;SDS011;11975;47.674;9.472;2023-06-26T09:08:34;16.85;;;15.75;;
23594;SDS011;11975;47.674;9.472;2023-06-26T09:11:00;15.57;;;14.57;;
23594;SDS011;11975;47.674;9.472;2023-06-26T09:13:28;17.33;;;16.33;;
23594;SDS011;11975;47.674;9.472;2023-06-26T09:15:54;17.55;;;16.55;;
23594;SDS011;11975;47.674;9.472;2023-06-26T09:18:21;17.55;;;16.45;;
23594;SDS011;11975;47.674;9.472;2023-06-26T09:20:47;16.35;;;15.43;;
23594;SDS011;11975;47.674;9.472;2023-06-26T09:23:14;17.60;;;16.52;;
23594;SDS011;11975;47.674;9.472;2023-06-26T09:25:40;17.08;;;16.13;;
23594;SDS011;11975;47.674;9.472;2023-06-26T09:28:07;17.27;;;16.27;;
23594;SDS011;11975;47.674;9.472;2023-06-26T09:30:34;18.10;;;17.00;;
23594;SDS011;11975;47.674;9.472;2023-06-26T09:35:38;17.55;;;16.50;;
23594;SDS011;11975;47.674;9.472;2023-06-26T09:38:04;17.73;;;16.52;;
23594;SDS011;11975;47.674;9.472;2023-06-26T09:40:30;16.52;;;15.63;;
23594;SDS011;11975;47.674;9.472;2023-06-26T09:43:05;15.77;;;14.88;;
23594;SDS011;11975;47.674;9.472;2023-06-26T09:45:35;17.40;;;16.40;;
23594;SDS011;11975;47.674;9.472;2023-06-26T09:48:04;17.30;;;16.27;;
23594;SDS011;11975;47.674;9.472;2023-06-26T09:50:32;17.05;;;16.08;;
23594;SDS011;11975;47.674;9.472;2023-06-26T09:53:09;17.20;;;16.27;;
23594;SDS011;11975;47.674;9.472;2023-06-26T09:55:36;16.77;;;15.85;;
23594;SDS011;11975;47.674;9.472;2023-06-26T09:58:03;16.40;;;15.50;;
23594;SDS011;11975;47.674;9.472;2023-06-26T10:00:30;16.40;;;15.45;;
23594;SDS011;11975;47.674;9.472;2023-06-26T10:02:57;16.90;;;15.90;;
23594;SDS011;11975;47.674;9.472;2023-06-26T10:05:26;16.13;;;15.23;;
23594;SDS011;11975;47.674;9.472;2023-06-26T10:10:22;17.02;;;16.02;;
23594;SDS011;11975;47.674;9.472;2023-06-26T10:12:48;16.83;;;15.93;;
23594;SDS011;11975;47.674;9.472;2023-06-26T10:15:15;16.92;;;16.02;;
23594;SDS011;11975;47.674;9.472;2023-06-26T10:17:42;17.33;;;16.33;;
23594;SDS011;11975;47.674;9.472;2023-06-26T10:20:09;17.38;;;16.38;;
23594;SDS011;11975;47.674;9.472;2023-06-26T10:25:03;17.17;;;16.27;;
23594;SDS011;11975;47.674;9.472;2023-06-26T10:27:33;17.50;;;16.50;;
23594;SDS011;11975;47.674;9.472;2023-06-26T10:30:06;17.15;;;16.15;;
23594;SDS011;11975;47.674;9.472;2023-06-26T10:32:38;17.65;;;16.65;;
23594;SDS011;11975;47.674;9.472;2023-06-26T10:35:06;16.83;;;15.93;;
23594;SDS011;11975;47.674;9.472;2023-06-26T10:37:45;17.85;;;16.67;;
23594;SDS011;11975;47.674;9.472;2023-06-26T10:40:13;17.15;;;16.15;;
23594;SDS011;11975;47.674;9.472;2023-06-26T10:42:40;16.13;;;15.23;;
23594;SDS011;11975;47.674;9.472;2023-06-26T10:45:09;17.48;;;16.48;;
23594;SDS011;11975;47.674;9.472;2023-06-26T10:47:39;16.95;;;16.05;;
23594;SDS011;11975;47.674;9.472;2023-06-26T10:50:26;17.17;;;16.23;;
23594;SDS011;11975;47.674;9.472;2023-06-26T10:55:48;18.00;;;16.90;;
23594;SDS011;11975;47.674;9.472;2023-06-26T10:58:34;16.65;;;15.75;;
23594;SDS011;11975;47.674;9.472;2023-06-26T11:03:42;16.58;;;15.57;;
23594;SDS011;11975;47.674;9.472;2023-06-26T11:06:10;16.33;;;15.43;;
23594;SDS011;11975;47.674;9.472;2023-06-26T11:08:44;16.98;;;16.08;;
23594;SDS011;11975;47.674;9.472;2023-06-26T11:11:13;16.02;;;15.13;;
23594;SDS011;11975;47.674;9.472;2023-06-26T11:13:40;17.77;;;16.63;;
23594;SDS011;11975;47.674;9.472;2023-06-26T11:21:07;17.33;;;15.90;;
23594;SDS011;11975;47.674;9.472;2023-06-26T11:23:34;17.40;;;16.40;;
23594;SDS011;11975;47.674;9.472;2023-06-26T11:26:17;16.63;;;15.70;;
23594;SDS011;11975;47.674;9.472;2023-06-26T11:31:25;16.75;;;15.85;;
23594;SDS011;11975;47.674;9.472;2023-06-26T11:33:52;16.48;;;15.57;;
23594;SDS011;11975;47.674;9.472;2023-06-26T11:36:19;16.25;;;15.35;;
23594;SDS011;11975;47.674;9.472;2023-06-26T11:38:45;16.98;;;16.02;;
23594;SDS011;11975;47.674;9.472;2023-06-26T11:41:16;17.05;;;16.05;;
23594;SDS011;11975;47.674;9.472;2023-06-26T11:43:42;17.00;;;16.10;;
23594;SDS011;11975;47.674;9.472;2023-06-26T11:46:08;15.50;;;14.65;;
23594;SDS011;11975;47.674;9.472;2023-06-26T11:48:35;16.10;;;15.20;;
23594;SDS011;11975;47.674;9.472;2023-06-26T11:51:03;15.80;;;14.90;;
23594;SDS011;11975;47.674;9.472;2023-06-26T11:53:30;16.75;;;15.85;;
23594;SDS011;11975;47.674;9.472;2023-06-26T11:55:56;16.67;;;15.77;;
23594;SDS011;11975;47.674;9.472;2023-06-26T12:00:48;17.08;;;15.82;;
23594;SDS011;11975;47.674;9.472;2023-06-26T12:03:14;16.63;;;15.63;;
23594;SDS011;11975;47.674;9.472;2023-06-26T12:05:41;16.88;;;15.98;;
23594;SDS011;11975;47.674;9.472;2023-06-26T12:08:08;16.00;;;15.10;;
23594;SDS011;11975;47.674;9.472;2023-06-26T12:10:34;16.35;;;15.45;;
23594;SDS011;11975;47.674;9.472;2023-06-26T12:13:00;15.50;;;14.60;;
23594;SDS011;11975;47.674;9.472;2023-06-26T12:15:27;16.60;;;15.70;;
23594;SDS011;11975;47.674;9.472;2023-06-26T12:17:56;16.25;;;15.25;;
23594;SDS011;11975;47.674;9.472;2023-06-26T12:20:22;17.08;;;16.15;;
23594;SDS011;11975;47.674;9.472;2023-06-26T12:22:51;16.63;;;15.60;;
23594;SDS011;11975;47.674;9.472;2023-06-26T12:25:23;15.95;;;15.05;;
23594;SDS011;11975;47.674;9.472;2023-06-26T12:27:49;14.77;;;13.98;;
23594;SDS011;11975;47.674;9.472;2023-06-26T12:30:15;16.13;;;15.23;;
23594;SDS011;11975;47.674;9.472;2023-06-26T12:32:45;16.67;;;15.68;;
23594;SDS011;11975;47.674;9.472;2023-06-26T12:35:14;15.57;;;14.70;;
23594;SDS011;11975;47.674;9.472;2023-06-26T12:37:41;16.25;;;15.30;;
23594;SDS011;11975;47.674;9.472;2023-06-26T12:40:18;17.40;;;16.40;;
23594;SDS011;11975;47.674;9.472;2023-06-26T12:42:47;16.65;;;15.75;;
23594;SDS011;11975;47.674;9.472;2023-06-26T12:45:13;17.77;;;16.77;;
23594;SDS011;11975;47.674;9.472;2023-06-26T12:47:40;16.67;;;15.77;;
23594;SDS011;11975;47.674;9.472;2023-06-26T12:50:07;16.15;;;15.25;;
23594;SDS011;11975;47.674;9.472;2023-06-26T12:54:59;16.05;;;15.15;;
23594;SDS011;11975;47.674;9.472;2023-06-26T12:57:25;17.17;;;16.17;;
23594;SDS011;11975;47.674;9.472;2023-06-26T12:59:51;15.88;;;14.98;;
23594;SDS011;11975;47.674;9.472;2023-06-26T13:02:18;15.63;;;14.73;;
23594;SDS011;11975;47.674;9.472;2023-06-26T13:04:44;16.52;;;15.63;;
23594;SDS011;11975;47.674;9.472;2023-06-26T13:07:10;15.30;;;14.50;;
23594;SDS011;11975;47.674;9.472;2023-06-26T13:09:36;16.05;;;15.15;;
23594;SDS011;11975;47.674;9.472;2023-06-26T13:12:03;15.38;;;14.50;;
23594;SDS011;11975;47.674;9.472;2023-06-26T13:14:31;16.42;;;15.52;;
23594;SDS011;11975;47.674;9.472;2023-06-26T13:21:49;16.42;;;15.48;;
23594;SDS011;11975;47.674;9.472;2023-06-26T13:24:15;16.00;;;15.10;;
23594;SDS011;11975;47.674;9.472;2023-06-26T13:26:41;15.40;;;14.55;;
23594;SDS011;11975;47.674;9.472;2023-06-26T13:29:07;15.32;;;14.43;;
23594;SDS011;11975;47.674;9.472;2023-06-26T13:31:33;15.95;;;15.05;;
23594;SDS011;11975;47.674;9.472;2023-06-26T13:33:59;16.67;;;15.68;;
23594;SDS011;11975;47.674;9.472;2023-06-26T13:41:21;16.73;;;15.75;;
23594;SDS011;11975;47.674;9.472;2023-06-26T13:43:48;17.05;;;16.13;;
23594;SDS011;11975;47.674;9.472;2023-06-26T13:46:14;16.38;;;15.48;;
23594;SDS011;11975;47.674;9.472;2023-06-26T13:48:41;22.98;;;16.17;;
23594;SDS011;11975;47.674;9.472;2023-06-26T13:51:07;16.48;;;15.57;;
23594;SDS011;11975;47.674;9.472;2023-06-26T13:53:32;16.83;;;15.93;;
23594;SDS011;11975;47.674;9.472;2023-06-26T13:55:58;16.85;;;15.85;;
23594;SDS011;11975;47.674;9.472;2023-06-26T13:58:24;16.25;;;15.25;;
23594;SDS011;11975;47.674;9.472;2023-06-26T14:00:52;16.27;;;15.38;;
23594;SDS011;11975;47.674;9.472;2023-06-26T14:03:19;17.35;;;16.35;;
23594;SDS011;11975;47.674;9.472;2023-06-26T14:05:45;17.80;;;16.80;;
23594;SDS011;11975;47.674;9.472;2023-06-26T14:08:11;16.95;;;16.00;;
23594;SDS011;11975;47.674;9.472;2023-06-26T14:10:37;16.88;;;15.40;;
23594;SDS011;11975;47.674;9.472;2023-06-26T14:13:03;16.20;;;15.30;;
23594;SDS011;11975;47.674;9.472;2023-06-26T14:20:21;15.90;;;15.00;;
23594;SDS011;11975;47.674;9.472;2023-06-26T14:27:39;15.27;;;14.48;;
23594;SDS011;11975;47.674;9.472;2023-06-26T14:30:05;16.02;;;15.10;;
23594;SDS011;11975;47.674;9.472;2023-06-26T14:32:33;16.35;;;15.25;;
23594;SDS011;11975;47.674;9.472;2023-06-26T14:34:59;17.45;;;16.45;;
23594;SDS011;11975;47.674;9.472;2023-06-26T14:37:26;17.13;;;16.23;;
23594;SDS011;11975;47.674;9.472;2023-06-26T14:39:52;16.50;;;15.60;;
23594;SDS011;11975;47.674;9.472;2023-06-26T14:42:18;16.50;;;15.60;;
23594;SDS011;11975;47.674;9.472;2023-06-26T14:44:44;15.98;;;14.98;;
23594;SDS011;11975;47.674;9.472;2023-06-26T14:47:12;16.77;;;15.88;;
23594;SDS011;11975;47.674;9.472;2023-06-26T14:49:39;16.52;;;15.63;;
23594;SDS011;11975;47.674;9.472;2023-06-26T14:52:05;16.52;;;15.63;;
23594;SDS011;11975;47.674;9.472;2023-06-26T14:54:31;17.48;;;16.48;;
23594;SDS011;11975;47.674;9.472;2023-06-26T14:56:58;16.92;;;15.93;;
23594;SDS011;11975;47.674;9.472;2023-06-26T14:59:24;16.13;;;15.23;;
23594;SDS011;11975;47.674;9.472;2023-06-26T15:01:50;17.20;;;15.98;;
23594;SDS011;11975;47.674;9.472;2023-06-26T15:04:16;17.30;;;16.33;;
23594;SDS011;11975;47.674;9.472;2023-06-26T15:06:42;17.52;;;16.52;;
23594;SDS011;11975;47.674;9.472;2023-06-26T15:09:07;18.75;;;17.55;;
23594;SDS011;11975;47.674;9.472;2023-06-26T15:11:34;17.63;;;16.63;;
23594;SDS011;11975;47.674;9.472;2023-06-26T15:14:01;17.42;;;16.23;;
23594;SDS011;11975;47.674;9.472;2023-06-26T15:16:27;17.48;;;16.48;;
23594;SDS011;11975;47.674;9.472;2023-06-26T15:18:53;16.52;;;15.63;;
23594;SDS011;11975;47.674;9.472;2023-06-26T15:21:19;15.88;;;14.98;;
23594;SDS011;11975;47.674;9.472;2023-06-26T15:23:45;16.35;;;15.45;;